Climatologie pour Saint-Brevin les Pins
Jour • Résumé pour décembre 3, 2017 Système :  Métrique    Anglais   Mixte
« - 1 jour
+ 1 jour »
Jour Semaine Mois Année Personnalisé
  Maximum : Minimum : Moyenne :
Température sous abri : -17.8 °C -17 °C -14 °C
Point de rosée : -17.8 °C -17.3 °C -14.6 °C
Humidité : Humidity % 81 % 93 %
Vitesse du vent : 0 km/h 0 km/h 1.8 km/h
Rafale : 0 km/h - -
Direction :- - West
Pression : 0 hPa 34818.2 hPa -
Précipitations : 7.62 mm    
Historical Graphs
 
 
Tableau de données pour décembre 3, 2017
Heure Tempé Pt rosée Pression Vent Vitesse Rafale Humidité Taux pluie (/hr) Soleil
-17.8 °C -17.8 °C 0 hPa Calm     Humidity % 0 mm SolarRadiationWatts/m^2 W/m2 Conditions
00:00 -16.7 °C -17 °C 34865.6 hPa Calm     96 % 0 mm 0 W/m2
00:10 -16.6 °C -16.9 °C 34865.6 hPa Calm     96 % 0 mm 0 W/m2
00:15 -16.6 °C -16.9 °C 34852.1 hPa Calm     96 % 0 mm 0 W/m2
00:20 -16.6 °C -16.8 °C 34852.1 hPa Calm     96 % 0 mm 0 W/m2
00:30 -16.6 °C -16.9 °C 34865.6 hPa Calm     96 % 0 mm 0 W/m2
00:35 -16.6 °C -16.9 °C 34865.6 hPa Calm     96 % 0 mm 0 W/m2
00:40 -16.6 °C -16.9 °C 34865.6 hPa Calm     96 % 0 mm 0 W/m2
00:45 -16.6 °C -16.9 °C 34865.6 hPa Calm     96 % 0 mm 0 W/m2
00:50 -16.6 °C -16.9 °C 34865.6 hPa Calm     96 % 0 mm 0 W/m2
00:55 -16.6 °C -16.9 °C 34865.6 hPa Calm     96 % 0 mm 0 W/m2
01:00 -16.7 °C -17 °C 34852.1 hPa Calm     96 % 0 mm 0 W/m2
01:15 -17 °C -17.3 °C 34852.1 hPa Calm     96 % 0 mm 0 W/m2
01:25 -16.9 °C -17.2 °C 34852.1 hPa Calm     96 % 0 mm 0 W/m2
01:30 -16.8 °C -17.1 °C 34852.1 hPa Calm     96 % 0 mm 0 W/m2
01:40 -16.8 °C -17.1 °C 34852.1 hPa Calm     96 % 0 mm 0 W/m2
01:45 -16.8 °C -17.1 °C 34841.9 hPa Calm     96 % 0 mm 0 W/m2
01:55 -16.7 °C -17.1 °C 34841.9 hPa Calm     96 % 0 mm 0 W/m2
02:00 -16.7 °C -17 °C 34841.9 hPa Calm     96 % 0 mm 0 W/m2
02:05 -16.6 °C -16.9 °C 34841.9 hPa Calm     96 % 0 mm 0 W/m2
02:10 -16.6 °C -16.9 °C 34841.9 hPa Calm     96 % 0 mm 0 W/m2
02:15 -16.6 °C -16.8 °C 34841.9 hPa Calm     96 % 0 mm 0 W/m2
02:20 -16.5 °C -16.8 °C 34841.9 hPa Calm     96 % 0 mm 0 W/m2
02:25 -16.5 °C -16.8 °C 34841.9 hPa Calm     96 % 0 mm 0 W/m2
02:30 -16.4 °C -16.7 °C 34841.9 hPa Calm     96 % 0 mm 0 W/m2
02:40 -16.3 °C -16.7 °C 34841.9 hPa Calm     96 % 0 mm 0 W/m2
02:45 -16.4 °C -16.7 °C 34841.9 hPa Calm     96 % 0 mm 0 W/m2
02:50 -16.4 °C -16.7 °C 34841.9 hPa Calm     96 % 0 mm 0 W/m2
03:00 -16.6 °C -16.8 °C 34841.9 hPa Calm     96 % 0 mm 0 W/m2
03:05 -16.6 °C -16.9 °C 34841.9 hPa Calm     96 % 0 mm 0 W/m2
03:10 -16.6 °C -16.9 °C 34841.9 hPa Calm     96 % 0 mm 0 W/m2
03:15 -16.6 °C -16.9 °C 34841.9 hPa Calm     96 % 0 mm 0 W/m2
03:20 -16.6 °C -16.9 °C 34841.9 hPa Calm     96 % 0 mm 0 W/m2
03:25 -16.6 °C -16.9 °C 34841.9 hPa Calm     96 % 0 mm 0 W/m2
03:30 -16.6 °C -16.9 °C 34841.9 hPa Calm     96 % 0 mm 0 W/m2
03:35 -16.6 °C -16.9 °C 34831.8 hPa Calm     96 % 0 mm 0 W/m2
03:40 -16.6 °C -16.8 °C 34831.8 hPa Calm     96 % 0 mm 0 W/m2
03:45 -16.6 °C -16.9 °C 34831.8 hPa Calm     96 % 0 mm 0 W/m2
03:50 -16.6 °C -16.8 °C 34831.8 hPa Calm     96 % 0 mm 0 W/m2
03:55 -16.6 °C -16.8 °C 34841.9 hPa Calm     96 % 0 mm 0 W/m2
04:00 -16.5 °C -16.8 °C 34831.8 hPa Calm     96 % 0 mm 0 W/m2
04:05 -16.4 °C -16.7 °C 34831.8 hPa Calm     96 % 0 mm 0 W/m2
04:10 -16.3 °C -16.7 °C 34831.8 hPa Calm     96 % 0 mm 0 W/m2
04:15 -16.3 °C -16.7 °C 34831.8 hPa Calm     96 % 0 mm 0 W/m2
04:20 -16.3 °C -16.7 °C 34818.2 hPa Calm     96 % 0 mm 0 W/m2
04:30 -16.3 °C -16.7 °C 34818.2 hPa Calm   5.1 km/h 96 % 0 mm 0 W/m2
04:35 -16.4 °C -16.7 °C 34818.2 hPa Calm   5.1 km/h 96 % 0 mm 0 W/m2
04:40 -16.3 °C -16.7 °C 34818.2 hPa Calm   5.1 km/h 96 % 0 mm 0 W/m2
04:50 -16.3 °C -16.6 °C 34818.2 hPa Calm     96 % 0 mm 0 W/m2
05:05 -16.2 °C -16.5 °C 34818.2 hPa Calm     96 % 0 mm 0 W/m2
05:15 -16.1 °C -16.4 °C 34818.2 hPa Calm     96 % 0 mm 0 W/m2
05:20 -16.1 °C -16.4 °C 34818.2 hPa Calm     96 % 0 mm 0 W/m2
05:25 -16 °C -16.3 °C 34818.2 hPa ENE 5.1 km/h 5.1 km/h 96 % 0 mm 0 W/m2
05:30 -15.9 °C -16.2 °C 34818.2 hPa Calm   5.1 km/h 96 % 0 mm 0 W/m2
05:35 -15.9 °C -16.2 °C 34818.2 hPa Calm   5.1 km/h 96 % 0 mm 0 W/m2
05:40 -15.8 °C -16.1 °C 34818.2 hPa ENE 2.6 km/h 5.1 km/h 96 % 0 mm 0 W/m2
05:45 -15.7 °C -16.1 °C 34818.2 hPa Calm   7.7 km/h 96 % 0 mm 0 W/m2
05:55 -15.6 °C -15.9 °C 34818.2 hPa Calm   5.1 km/h 96 % 0 mm 0 W/m2
06:10 -15.5 °C -15.8 °C 34818.2 hPa Calm     96 % 0 mm 0 W/m2
06:15 -15.5 °C -15.8 °C 34818.2 hPa Calm     96 % 0 mm 0 W/m2
06:20 -15.4 °C -15.8 °C 34818.2 hPa Calm     96 % 0 mm 0 W/m2
06:25 -15.4 °C -15.8 °C 34818.2 hPa Calm     96 % 7.62 mm 0 W/m2
06:30 -15.4 °C -15.8 °C 34818.2 hPa Calm     96 % 7.62 mm 0 W/m2
06:35 -15.4 °C -15.8 °C 34818.2 hPa Calm     96 % 7.62 mm 0 W/m2
06:45 -15.4 °C -15.7 °C 34818.2 hPa Calm     96 % 7.62 mm 0 W/m2
06:50 -15.3 °C -15.6 °C 34818.2 hPa Calm     97 % 7.62 mm 0 W/m2
06:55 -15.3 °C -15.6 °C 34818.2 hPa Calm     97 % 7.62 mm 0 W/m2
07:00 -15.3 °C -15.5 °C 34818.2 hPa Calm     97 % 7.62 mm 0 W/m2
07:15 -15.3 °C -15.5 °C 34818.2 hPa Calm   7.7 km/h 97 % 7.62 mm 0 W/m2
07:20 -15.3 °C -15.6 °C 34818.2 hPa Calm   7.7 km/h 97 % 7.62 mm 0 W/m2
07:25 -15.3 °C -15.6 °C 34818.2 hPa Calm   5.1 km/h 97 % 0 mm 0 W/m2
07:40 -15.4 °C -15.6 °C 34831.8 hPa Calm     97 % 0 mm 0 W/m2
07:50 -15.4 °C -15.7 °C 34831.8 hPa Calm     97 % 0 mm 0 W/m2
08:00 -15.4 °C -15.7 °C 34831.8 hPa Calm     97 % 0 mm 0 W/m2
08:10 -15.4 °C -15.7 °C 34831.8 hPa Calm     97 % 0 mm 0 W/m2
08:20 -15.4 °C -15.7 °C 34831.8 hPa Calm     97 % 0 mm 0 W/m2
08:25 -15.4 °C -15.7 °C 34841.9 hPa Calm     97 % 0 mm 0 W/m2
08:30 -15.4 °C -15.7 °C 34841.9 hPa Calm     97 % 0 mm 0 W/m2
08:35 -15.4 °C -15.7 °C 34841.9 hPa Calm     97 % 0 mm 0 W/m2
08:40 -15.4 °C -15.7 °C 34841.9 hPa Calm     97 % 0 mm 0 W/m2
08:45 -15.4 °C -15.7 °C 34841.9 hPa Calm     97 % 0 mm 0 W/m2
08:55 -15.4 °C -15.6 °C 34831.8 hPa Calm     97 % 0 mm 7 W/m2
09:00 -15.4 °C -15.6 °C 34841.9 hPa Calm     97 % 0 mm 11 W/m2
09:05 -15.3 °C -15.6 °C 34841.9 hPa Calm     97 % 0 mm 16 W/m2
09:10 -15.3 °C -15.5 °C 34841.9 hPa Calm     97 % 0 mm 19 W/m2
09:15 -15.2 °C -15.4 °C 34831.8 hPa Calm     97 % 0 mm 19 W/m2
09:25 -15.1 °C -15.4 °C 34841.9 hPa Calm     97 % 0 mm 23 W/m2
09:30 -15.1 °C -15.3 °C 34841.9 hPa Calm     97 % 0 mm 30 W/m2
09:35 -15.1 °C -15.3 °C 34841.9 hPa Calm     97 % 0 mm 37 W/m2
09:45 -14.9 °C -15.1 °C 34841.9 hPa Calm     98 % 0 mm 53 W/m2
09:55 -14.8 °C -14.9 °C 34841.9 hPa Calm     98 % 0 mm 65 W/m2
10:00 -14.7 °C -14.8 °C 34841.9 hPa Calm     98 % 0 mm 77 W/m2
10:10 -14.5 °C -14.6 °C 34841.9 hPa Calm     98 % 0 mm 135 W/m2
10:15 -14.2 °C -14.3 °C 34852.1 hPa Calm     98 % 0 mm 183 W/m2
10:20 -13.9 °C -14.1 °C 34841.9 hPa Calm     98 % 0 mm 190 W/m2
10:25 -13.7 °C -13.8 °C 34852.1 hPa Calm     98 % 0 mm 253 W/m2
10:30 -13.4 °C -13.6 °C 34852.1 hPa WNW 5.1 km/h 10.3 km/h 98 % 0 mm 132 W/m2
10:35 -13.3 °C -13.5 °C 34852.1 hPa WNW 5.1 km/h 10.3 km/h 98 % 0 mm 118 W/m2
10:40 -13.4 °C -13.6 °C 34852.1 hPa West 2.6 km/h 7.7 km/h 97 % 0 mm 118 W/m2
10:45 -13.3 °C -13.6 °C 34852.1 hPa Calm   7.7 km/h 97 % 0 mm 127 W/m2
10:50 -13.3 °C -13.5 °C 34852.1 hPa West 5.1 km/h 7.7 km/h 97 % 0 mm 128 W/m2
10:55 -13.3 °C -13.6 °C 34852.1 hPa Calm   10.3 km/h 97 % 0 mm 153 W/m2
11:00 -13.2 °C -13.4 °C 34852.1 hPa Calm   10.3 km/h 97 % 0 mm 214 W/m2
11:05 -13.1 °C -13.4 °C 34852.1 hPa Calm   7.7 km/h 96 % 0 mm 174 W/m2
11:10 -13.1 °C -13.4 °C 34852.1 hPa Calm   7.7 km/h 96 % 0 mm 139 W/m2
11:15 -13.1 °C -13.5 °C 34852.1 hPa WNW 5.1 km/h 10.3 km/h 95 % 0 mm 141 W/m2
11:20 -13 °C -13.4 °C 34865.6 hPa Calm   10.3 km/h 95 % 0 mm 125 W/m2
11:25 -13 °C -13.5 °C 34865.6 hPa Calm   7.7 km/h 94 % 0 mm 141 W/m2
11:30 -12.9 °C -13.4 °C 34865.6 hPa NNW 5.1 km/h 7.7 km/h 94 % 0 mm 169 W/m2
11:35 -12.9 °C -13.5 °C 34865.6 hPa Calm   7.7 km/h 93 % 0 mm 153 W/m2
11:40 -12.9 °C -13.4 °C 34865.6 hPa Calm   7.7 km/h 93 % 0 mm 156 W/m2
11:45 -12.8 °C -13.5 °C 34865.6 hPa NNW 2.6 km/h 5.1 km/h 92 % 0 mm 185 W/m2
11:50 -12.8 °C -13.6 °C 34865.6 hPa NNW 2.6 km/h 7.7 km/h 91 % 0 mm 190 W/m2
11:55 -12.8 °C -13.6 °C 34865.6 hPa Calm   10.3 km/h 91 % 0 mm 167 W/m2
12:00 -12.6 °C -13.3 °C 34865.6 hPa NW 7.7 km/h 10.3 km/h 92 % 0 mm 185 W/m2
12:05 -12.7 °C -13.4 °C 34865.6 hPa WNW 5.1 km/h 7.7 km/h 91 % 0 mm 107 W/m2
12:10 -12.7 °C -13.5 °C 34852.1 hPa Calm   7.7 km/h 91 % 0 mm 134 W/m2
12:15 -12.7 °C -13.4 °C 34852.1 hPa WNW 2.6 km/h 7.7 km/h 91 % 0 mm 188 W/m2
12:20 -12.5 °C -13.3 °C 34852.1 hPa WNW 5.1 km/h 10.3 km/h 91 % 0 mm 258 W/m2
12:25 -12.4 °C -13.3 °C 34852.1 hPa WNW 7.7 km/h 10.3 km/h 90 % 0 mm 202 W/m2
12:30 -12.4 °C -13.2 °C 34852.1 hPa West 5.1 km/h 10.3 km/h 90 % 0 mm 160 W/m2
12:35 -12.4 °C -13.3 °C 34852.1 hPa WNW 7.7 km/h 10.3 km/h 89 % 0 mm 160 W/m2
12:40 -12.4 °C -13.4 °C 34852.1 hPa Calm   10.3 km/h 89 % 0 mm 163 W/m2
12:45 -12.3 °C -13.2 °C 34852.1 hPa Calm   10.3 km/h 90 % 0 mm 156 W/m2
12:55 -12.2 °C -13.3 °C 34852.1 hPa Calm   15.6 km/h 88 % 0 mm 155 W/m2
13:00 -12.2 °C -13.3 °C 34852.1 hPa NNW 2.6 km/h 15.6 km/h 87 % 0 mm 404 W/m2
13:05 -11.7 °C -12.9 °C 34852.1 hPa North 7.7 km/h 10.3 km/h 87 % 0 mm 332 W/m2
13:10 -11.6 °C -13 °C 34841.9 hPa NW 12.9 km/h 18.2 km/h 84 % 0 mm 392 W/m2
13:15 -11.6 °C -13 °C 34852.1 hPa North 2.6 km/h 18.2 km/h 84 % 0 mm 362 W/m2
13:20 -11.4 °C -12.9 °C 34852.1 hPa NNE 7.7 km/h 18.2 km/h 84 % 0 mm 462 W/m2
13:25 -11.2 °C -12.9 °C 34841.9 hPa NNW 10.3 km/h 20.8 km/h 82 % 0 mm 369 W/m2
13:30 -11.3 °C -12.8 °C 34841.9 hPa West 18.2 km/h 20.8 km/h 84 % 0 mm 202 W/m2
13:35 -11.5 °C -12.9 °C 34841.9 hPa NW 10.3 km/h 18.2 km/h 84 % 0 mm 163 W/m2
13:40 -11.8 °C -13.3 °C 34852.1 hPa North 10.3 km/h 18.2 km/h 83 % 0 mm 167 W/m2
13:45 -11.8 °C -13.3 °C 34841.9 hPa NNW 5.1 km/h 18.2 km/h 84 % 0 mm 176 W/m2
13:50 -11.8 °C -13.3 °C 34841.9 hPa WNW 7.7 km/h 12.9 km/h 84 % 0 mm 193 W/m2
13:55 -11.8 °C -13.3 °C 34841.9 hPa NNE 10.3 km/h 15.6 km/h 83 % 0 mm 128 W/m2
14:00 -11.8 °C -13.4 °C 34841.9 hPa NW 2.6 km/h 15.6 km/h 83 % 0 mm 97 W/m2
14:05 -12.1 °C -13.6 °C 34841.9 hPa WNW 7.7 km/h 12.9 km/h 83 % 0 mm 186 W/m2
14:10 -11.8 °C -13.3 °C 34841.9 hPa NW 7.7 km/h 12.9 km/h 83 % 0 mm 323 W/m2
14:15 -11.4 °C -13.1 °C 34841.9 hPa Calm   12.9 km/h 82 % 0 mm 378 W/m2
14:25 -11.6 °C -13.3 °C 34841.9 hPa Calm   18.2 km/h 81 % 0 mm 165 W/m2
14:30 -11.8 °C -13.4 °C 34841.9 hPa WNW 7.7 km/h 18.2 km/h 82 % 0 mm 123 W/m2
14:35 -11.9 °C -13.4 °C 34841.9 hPa Calm   12.9 km/h 83 % 0 mm 174 W/m2
14:40 -11.8 °C -13.3 °C 34852.1 hPa WNW 7.7 km/h 10.3 km/h 83 % 0 mm 188 W/m2
14:45 -11.8 °C -13.6 °C 34841.9 hPa Calm   10.3 km/h 81 % 0 mm 148 W/m2
14:50 -11.8 °C -13.2 °C 34852.1 hPa North 2.6 km/h 12.9 km/h 84 % 0 mm 160 W/m2
14:55 -11.8 °C -13.2 °C 34852.1 hPa NNW 2.6 km/h 18.2 km/h 84 % 0 mm 144 W/m2
15:00 -11.7 °C -13.2 °C 34841.9 hPa NNW 5.1 km/h 18.2 km/h 84 % 0 mm 128 W/m2
15:10 -11.8 °C -13.2 °C 34841.9 hPa NW 7.7 km/h 15.6 km/h 84 % 0 mm 98 W/m2
15:15 -11.8 °C -13.3 °C 34841.9 hPa NNW 7.7 km/h 12.9 km/h 83 % 0 mm 79 W/m2
15:20 -11.8 °C -13.3 °C 34841.9 hPa Calm   12.9 km/h 84 % 0 mm 90 W/m2
15:25 -11.8 °C -13.2 °C 34841.9 hPa North 7.7 km/h 12.9 km/h 85 % 0 mm 98 W/m2
15:30 -11.8 °C -13.3 °C 34841.9 hPa NNW 7.7 km/h 12.9 km/h 84 % 0 mm 90 W/m2
15:35 -11.8 °C -13.3 °C 34841.9 hPa North 10.3 km/h 18.2 km/h 84 % 0 mm 91 W/m2
15:40 -11.9 °C -13.3 °C 34841.9 hPa North 7.7 km/h 18.2 km/h 84 % 0 mm 83 W/m2
15:45 -11.9 °C -13.3 °C 34841.9 hPa NNE 7.7 km/h 18.2 km/h 85 % 0 mm 62 W/m2
15:50 -12 °C -13.3 °C 34841.9 hPa NNE 7.7 km/h 15.6 km/h 85 % 0 mm 54 W/m2
15:55 -12 °C -13.3 °C 34841.9 hPa North 5.1 km/h 15.6 km/h 85 % 0 mm 70 W/m2
16:00 -12.1 °C -13.4 °C 34841.9 hPa Calm   15.6 km/h 85 % 0 mm 54 W/m2
16:05 -12.1 °C -13.4 °C 34841.9 hPa Calm   18.2 km/h 85 % 0 mm 54 W/m2
16:10 -12.1 °C -13.4 °C 34841.9 hPa NNW 7.7 km/h 18.2 km/h 86 % 0 mm 53 W/m2
16:15 -12.2 °C -13.4 °C 34841.9 hPa Calm   12.9 km/h 86 % 0 mm 44 W/m2
16:20 -12.4 °C -13.6 °C 34852.1 hPa NNW 5.1 km/h 12.9 km/h 87 % 0 mm 37 W/m2
16:25 -12.5 °C -13.6 °C 34852.1 hPa NW 2.6 km/h 12.9 km/h 88 % 0 mm 51 W/m2
16:30 -12.6 °C -13.5 °C 34852.1 hPa Calm   12.9 km/h 89 % 0 mm 42 W/m2
16:35 -12.5 °C -13.4 °C 34852.1 hPa NW 2.6 km/h 12.9 km/h 89 % 0 mm 42 W/m2
16:40 -12.4 °C -13.5 °C 34852.1 hPa NW 2.6 km/h 10.3 km/h 88 % 0 mm 42 W/m2
16:45 -12.4 °C -13.4 °C 34852.1 hPa Calm   10.3 km/h 89 % 0 mm 26 W/m2
16:50 -12.4 °C -13.5 °C 34852.1 hPa NW 7.7 km/h 10.3 km/h 88 % 0 mm 16 W/m2
16:55 -12.4 °C -13.5 °C 34852.1 hPa Calm   10.3 km/h 88 % 0 mm 12 W/m2
17:00 -12.6 °C -13.5 °C 34852.1 hPa Calm   10.3 km/h 89 % 0 mm 9 W/m2
17:05 -12.6 °C -13.6 °C 34865.6 hPa North 10.3 km/h 10.3 km/h 89 % 0 mm 7 W/m2
17:10 -12.6 °C -13.6 °C 34865.6 hPa North 10.3 km/h 15.6 km/h 89 % 0 mm 5 W/m2
17:15 -12.7 °C -13.6 °C 34865.6 hPa Calm   15.6 km/h 89 % 0 mm 0 W/m2
17:20 -12.7 °C -13.7 °C 34865.6 hPa North 10.3 km/h 12.9 km/h 89 % 0 mm 0 W/m2
17:25 -12.8 °C -13.7 °C 34865.6 hPa Calm   10.3 km/h 90 % 0 mm 0 W/m2
17:30 -12.8 °C -13.7 °C 34865.6 hPa Calm   12.9 km/h 90 % 0 mm 0 W/m2
17:35 -12.8 °C -13.7 °C 34865.6 hPa NW 5.1 km/h 15.6 km/h 90 % 0 mm 0 W/m2
17:40 -12.8 °C -13.7 °C 34865.6 hPa NW 2.6 km/h 15.6 km/h 90 % 0 mm 0 W/m2
17:45 -12.8 °C -13.7 °C 34865.6 hPa Calm   12.9 km/h 90 % 0 mm 0 W/m2
17:50 -12.8 °C -13.6 °C 34865.6 hPa Calm   10.3 km/h 91 % 0 mm 0 W/m2
17:55 -12.8 °C -13.6 °C 34875.8 hPa Calm   10.3 km/h 91 % 0 mm 0 W/m2
18:00 -13 °C -13.8 °C 34875.8 hPa Calm   12.9 km/h 91 % 0 mm 0 W/m2
18:05 -13.1 °C -13.8 °C 34875.8 hPa Calm   12.9 km/h 91 % 0 mm 0 W/m2
18:10 -13.2 °C -13.9 °C 34875.8 hPa Calm   7.7 km/h 92 % 0 mm 0 W/m2
18:15 -13.3 °C -14 °C 34875.8 hPa Calm   5.1 km/h 92 % 0 mm 0 W/m2
18:20 -13.4 °C -14.1 °C 34875.8 hPa Calm   5.1 km/h 92 % 0 mm 0 W/m2
18:25 -13.4 °C -14 °C 34875.8 hPa Calm   7.7 km/h 93 % 0 mm 0 W/m2
18:30 -13.4 °C -14 °C 34875.8 hPa Calm   7.7 km/h 93 % 0 mm 0 W/m2
18:35 -13.4 °C -14.1 °C 34875.8 hPa Calm   5.1 km/h 93 % 0 mm 0 W/m2
18:40 -13.5 °C -14 °C 34875.8 hPa Calm   2.6 km/h 94 % 0 mm 0 W/m2
18:45 -13.5 °C -14 °C 34889.3 hPa Calm   2.6 km/h 94 % 0 mm 0 W/m2
18:50 -13.5 °C -14 °C 34889.3 hPa Calm   2.6 km/h 94 % 0 mm 0 W/m2
18:55 -13.5 °C -14 °C 34889.3 hPa Calm   5.1 km/h 94 % 0 mm 0 W/m2
19:00 -13.5 °C -14 °C 34889.3 hPa Calm   5.1 km/h 94 % 0 mm 0 W/m2
19:05 -13.5 °C -14 °C 34889.3 hPa Calm   5.1 km/h 94 % 0 mm 0 W/m2
19:10 -13.4 °C -13.9 °C 34889.3 hPa Calm   2.6 km/h 94 % 0 mm 0 W/m2
19:15 -13.4 °C -13.8 °C 34899.5 hPa Calm   2.6 km/h 95 % 0 mm 0 W/m2
19:20 -13.4 °C -13.9 °C 34899.5 hPa Calm     94 % 0 mm 0 W/m2
19:30 -13.3 °C -13.8 °C 34899.5 hPa Calm     94 % 0 mm 0 W/m2
19:35 -13.3 °C -13.8 °C 34899.5 hPa Calm     94 % 0 mm 0 W/m2
19:40 -13.3 °C -13.7 °C 34899.5 hPa Calm     95 % 0 mm 0 W/m2
19:45 -13.3 °C -13.8 °C 34899.5 hPa Calm     94 % 0 mm 0 W/m2
19:50 -13.3 °C -13.8 °C 34899.5 hPa Calm   2.6 km/h 95 % 0 mm 0 W/m2
19:55 -13.3 °C -13.7 °C 34909.7 hPa NW 7.7 km/h 10.3 km/h 95 % 0 mm 0 W/m2
20:00 -13.2 °C -13.7 °C 34909.7 hPa NW 5.1 km/h 12.9 km/h 95 % 0 mm 0 W/m2
20:05 -13.2 °C -13.6 °C 34909.7 hPa NW 5.1 km/h 12.9 km/h 95 % 0 mm 0 W/m2
20:10 -13.1 °C -13.5 °C 34909.7 hPa Calm   12.9 km/h 95 % 0 mm 0 W/m2
20:15 -13.1 °C -13.5 °C 34909.7 hPa WNW 5.1 km/h 10.3 km/h 95 % 0 mm 0 W/m2
20:20 -13 °C -13.4 °C 34909.7 hPa Calm   10.3 km/h 95 % 0 mm 0 W/m2
20:25 -13 °C -13.4 °C 34909.7 hPa WNW 2.6 km/h 10.3 km/h 95 % 0 mm 0 W/m2
20:30 -12.9 °C -13.4 °C 34909.7 hPa WNW 5.1 km/h 10.3 km/h 95 % 0 mm 0 W/m2
20:35 -12.9 °C -13.3 °C 34909.7 hPa NW 5.1 km/h 12.9 km/h 95 % 0 mm 0 W/m2
20:40 -12.9 °C -13.2 °C 34909.7 hPa NW 7.7 km/h 12.9 km/h 96 % 0 mm 0 W/m2
20:45 -12.9 °C -13.3 °C 34909.7 hPa NW 2.6 km/h 7.7 km/h 96 % 0 mm 0 W/m2
20:50 -12.9 °C -13.3 °C 34909.7 hPa Calm   7.7 km/h 96 % 0 mm 0 W/m2
20:55 -12.9 °C -13.3 °C 34909.7 hPa Calm   7.7 km/h 96 % 0 mm 0 W/m2
21:00 -12.9 °C -13.3 °C 34909.7 hPa Calm   5.1 km/h 96 % 0 mm 0 W/m2
21:05 -13.1 °C -13.4 °C 34909.7 hPa Calm   5.1 km/h 96 % 0 mm 0 W/m2
21:10 -13.2 °C -13.5 °C 34909.7 hPa Calm   5.1 km/h 96 % 0 mm 0 W/m2
21:20 -13.2 °C -13.6 °C 34923.2 hPa Calm     96 % 0 mm 0 W/m2
21:25 -13.3 °C -13.6 °C 34923.2 hPa Calm     96 % 0 mm 0 W/m2
21:30 -13.3 °C -13.5 °C 34923.2 hPa Calm     97 % 0 mm 0 W/m2
21:35 -13.3 °C -13.6 °C 34923.2 hPa Calm     97 % 0 mm 0 W/m2
21:40 -13.3 °C -13.6 °C 34923.2 hPa Calm     97 % 0 mm 0 W/m2
21:45 -13.3 °C -13.6 °C 34923.2 hPa Calm     97 % 0 mm 0 W/m2
21:50 -13.4 °C -13.6 °C 34923.2 hPa Calm     97 % 0 mm 0 W/m2
21:55 -13.4 °C -13.7 °C 34923.2 hPa Calm     97 % 0 mm 0 W/m2
22:05 -13.4 °C -13.7 °C 34933.4 hPa Calm     97 % 0 mm 0 W/m2
22:10 -13.4 °C -13.7 °C 34933.4 hPa Calm     97 % 0 mm 0 W/m2
22:15 -13.4 °C -13.7 °C 34933.4 hPa Calm     97 % 0 mm 0 W/m2
22:20 -13.4 °C -13.7 °C 34933.4 hPa Calm     97 % 0 mm 0 W/m2
22:25 -13.4 °C -13.7 °C 34933.4 hPa Calm     97 % 0 mm 0 W/m2
22:30 -13.4 °C -13.7 °C 34933.4 hPa Calm     97 % 0 mm 0 W/m2
22:35 -13.4 °C -13.7 °C 34933.4 hPa Calm   5.1 km/h 97 % 0 mm 0 W/m2
22:40 -13.4 °C -13.7 °C 34933.4 hPa Calm   7.7 km/h 97 % 0 mm 0 W/m2
22:45 -13.4 °C -13.7 °C 34946.9 hPa Calm   7.7 km/h 97 % 0 mm 0 W/m2
22:50 -13.4 °C -13.7 °C 34946.9 hPa NW 2.6 km/h 7.7 km/h 97 % 0 mm 0 W/m2
22:55 -13.4 °C -13.6 °C 34946.9 hPa NW 2.6 km/h 7.7 km/h 97 % 0 mm 0 W/m2
23:05 -13.4 °C -13.6 °C 34946.9 hPa Calm   5.1 km/h 97 % 0 mm 0 W/m2
23:10 -13.4 °C -13.6 °C 34946.9 hPa Calm     97 % 0 mm 0 W/m2
23:15 -13.3 °C -13.6 °C 34946.9 hPa NW 5.1 km/h 7.7 km/h 97 % 0 mm 0 W/m2
23:20 -13.3 °C -13.6 °C 34946.9 hPa Calm   7.7 km/h 97 % 0 mm 0 W/m2
23:25 -13.3 °C -13.6 °C 34946.9 hPa NW 2.6 km/h 10.3 km/h 97 % 0 mm 0 W/m2
23:30 -13.3 °C -13.6 °C 34946.9 hPa Calm   10.3 km/h 97 % 0 mm 0 W/m2
23:35 -13.3 °C -13.6 °C 34946.9 hPa Calm   10.3 km/h 97 % 0 mm 0 W/m2
23:40 -13.3 °C -13.6 °C 34957.1 hPa Calm   5.1 km/h 97 % 0 mm 0 W/m2
23:45 -13.2 °C -13.4 °C 34957.1 hPa Calm     98 % 0 mm 0 W/m2
23:50 -13.2 °C -13.5 °C 34957.1 hPa Calm   12.9 km/h 97 % 0 mm 0 W/m2
23:55 -13.2 °C -13.3 °C 34957.1 hPa NW 7.7 km/h 12.9 km/h 98 % 0 mm 0 W/m2
Avec l'autorisation de Weather Underground - 1.5 mb